Time;durP1;ratioP1;P1;durP2;ratioP2;P2;SDS_P1;SDS_P2;PMS_P1;PMS_P2;Temp;Humidity;BMP_temperature;BMP_pressure;BME280_temperature;BME280_humidity;BME280_pressure;Samples;Min_cycle;Max_cycle;Signal;HPM_P1;HPM_P2
2022/08/12 00:43:57;;;;;;;4.38;2.10;;;;;;;;;;5073744;28;20144;-72
2022/08/12 00:46:35;;;;;;;3.70;2.00;;;;;;;;;;5081985;28;20059;-72
2022/08/12 00:49:01;;;;;;;3.13;1.80;;;;;;;;;;5088879;28;20519;-72
2022/08/12 00:52:04;;;;;;;1.88;1.77;;;;;;;;;;5088238;28;20139;-72
2022/08/12 00:54:17;;;;;;;3.22;1.95;;;;;;;;;;5080299;28;20458;-72
2022/08/12 00:56:45;;;;;;;5.30;2.30;;;;;;;;;;5072753;28;20057;-72
2022/08/12 00:59:11;;;;;;;4.35;2.28;;;;;;;;;;5090397;28;20861;-72
2022/08/12 01:01:41;;;;;;;2.38;1.90;;;;;;;;;;5088366;28;20056;-72
2022/08/12 01:12:43;;;;;;;2.78;2.50;;;;;;;;;;5090782;28;20064;-72
2022/08/12 01:15:11;;;;;;;3.88;2.63;;;;;;;;;;5096959;28;20063;-72
2022/08/12 01:17:40;;;;;;;3.28;2.40;;;;;;;;;;5076620;28;20057;-72
2022/08/12 01:20:08;;;;;;;2.88;2.58;;;;;;;;;;5091335;28;20530;-72
2022/08/12 01:22:49;;;;;;;5.15;2.65;;;;;;;;;;5091740;28;20111;-72
2022/08/12 01:25:17;;;;;;;3.47;2.63;;;;;;;;;;5072587;28;20056;-72
2022/08/12 01:27:45;;;;;;;3.20;2.80;;;;;;;;;;5091205;28;20054;-72
2022/08/12 01:30:13;;;;;;;3.33;3.03;;;;;;;;;;5078637;28;20063;-72
2022/08/12 01:32:40;;;;;;;4.13;2.95;;;;;;;;;;5091214;28;20044;-72
2022/08/12 01:35:11;;;;;;;3.08;2.80;;;;;;;;;;5078153;28;20062;-72
2022/08/12 01:37:46;;;;;;;3.60;2.50;;;;;;;;;;5093062;28;20048;-72
2022/08/12 01:40:15;;;;;;;4.55;2.92;;;;;;;;;;5096076;28;20818;-72
2022/08/12 01:43:04;;;;;;;3.33;2.80;;;;;;;;;;5093909;27;20045;-72
2022/08/12 01:45:33;;;;;;;5.25;2.95;;;;;;;;;;5073644;28;20064;-72
2022/08/12 01:48:44;;;;;;;4.35;2.72;;;;;;;;;;5081775;28;20063;-72
2022/08/12 01:51:39;;;;;;;3.17;2.60;;;;;;;;;;5049908;28;20050;-72
2022/08/12 01:54:27;;;;;;;4.13;2.90;;;;;;;;;;5085563;28;20139;-72
2022/08/12 01:57:11;;;;;;;6.00;2.78;;;;;;;;;;5091837;28;20419;-72
2022/08/12 01:59:55;;;;;;;4.82;2.78;;;;;;;;;;5090062;28;20385;-72
2022/08/12 02:02:26;;;;;;;3.25;2.95;;;;;;;;;;5071936;28;20579;-72
2022/08/12 02:11:17;;;;;;;4.65;3.08;;;;;;;;;;5092367;28;20056;-72
2022/08/12 02:13:54;;;;;;;3.30;3.00;;;;;;;;;;5070519;28;20061;-72
2022/08/12 02:16:33;;;;;;;2.75;2.50;;;;;;;;;;5080442;28;20082;-72
2022/08/12 02:19:12;;;;;;;3.55;2.53;;;;;;;;;;5078164;28;20057;-72
2022/08/12 02:21:48;;;;;;;3.80;2.83;;;;;;;;;;5071980;28;20565;-72
2022/08/12 02:24:17;;;;;;;3.33;2.92;;;;;;;;;;5091079;28;20131;-73
2022/08/12 02:26:45;;;;;;;3.97;2.67;;;;;;;;;;5092749;28;20436;-72
2022/08/12 02:29:19;;;;;;;3.17;2.50;;;;;;;;;;5078320;28;20397;-72
2022/08/12 02:31:46;;;;;;;4.35;2.67;;;;;;;;;;5084961;28;20049;-72
2022/08/12 02:34:15;;;;;;;3.65;3.08;;;;;;;;;;5075166;28;20097;-72
2022/08/12 02:36:43;;;;;;;4.25;3.30;;;;;;;;;;5091455;28;20057;-72
2022/08/12 02:39:12;;;;;;;4.70;3.30;;;;;;;;;;5095545;28;20040;-72
2022/08/12 02:41:41;;;;;;;3.88;2.80;;;;;;;;;;5095279;28;20496;-72
2022/08/12 02:44:08;;;;;;;4.55;2.80;;;;;;;;;;5075102;28;20061;-72
2022/08/12 02:46:36;;;;;;;3.40;2.70;;;;;;;;;;5075798;28;20053;-73
2022/08/12 02:49:02;;;;;;;4.63;3.47;;;;;;;;;;5093824;28;20052;-72
2022/08/12 02:51:29;;;;;;;5.13;3.40;;;;;;;;;;5094996;28;20052;-72
2022/08/12 02:54:00;;;;;;;7.47;3.22;;;;;;;;;;5076756;28;20057;-72
2022/08/12 02:56:31;;;;;;;2.90;2.60;;;;;;;;;;5074974;28;20060;-72
2022/08/12 02:58:58;;;;;;;3.70;2.83;;;;;;;;;;5087737;28;20055;-72
2022/08/12 03:01:32;;;;;;;5.63;2.65;;;;;;;;;;5075038;28;20045;-72
2022/08/12 03:03:59;;;;;;;7.72;2.97;;;;;;;;;;5084721;28;20076;-72
2022/08/12 03:06:30;;;;;;;4.40;3.33;;;;;;;;;;5095143;28;20052;-72
2022/08/12 03:08:57;;;;;;;3.72;3.30;;;;;;;;;;5089075;28;20533;-71
2022/08/12 03:11:40;;;;;;;5.30;3.25;;;;;;;;;;5094621;28;20059;-72
2022/08/12 03:14:14;;;;;;;3.47;2.90;;;;;;;;;;5094410;28;20507;-72
2022/08/12 03:16:40;;;;;;;4.80;3.17;;;;;;;;;;5075684;28;20060;-72
2022/08/12 03:19:07;;;;;;;3.50;3.20;;;;;;;;;;5088809;28;20128;-72
2022/08/12 03:21:36;;;;;;;3.72;3.42;;;;;;;;;;5087066;28;20140;-72
2022/08/12 03:24:24;;;;;;;4.05;3.33;;;;;;;;;;5094132;28;20504;-72
2022/08/12 03:26:53;;;;;;;5.35;3.30;;;;;;;;;;5093700;28;20058;-72
2022/08/12 03:29:29;;;;;;;3.72;3.03;;;;;;;;;;5090649;28;20058;-72
2022/08/12 03:31:59;;;;;;;4.75;3.13;;;;;;;;;;5087575;28;20079;-72
2022/08/12 03:34:28;;;;;;;5.70;3.22;;;;;;;;;;5075085;28;20059;-72
2022/08/12 03:36:55;;;;;;;5.07;3.65;;;;;;;;;;5074832;28;20619;-71
2022/08/12 03:39:33;;;;;;;5.40;3.20;;;;;;;;;;5074265;28;20056;-71
2022/08/12 03:42:11;;;;;;;4.88;3.70;;;;;;;;;;5073952;28;20053;-71
2022/08/12 04:01:39;;;;;;;3.90;3.50;;;;;;;;;;5094517;28;20054;-72
2022/08/12 04:04:10;;;;;;;4.15;3.75;;;;;;;;;;5094481;28;20496;-72
2022/08/12 04:06:41;;;;;;;4.57;4.05;;;;;;;;;;5081469;28;20178;-72
2022/08/12 04:09:08;;;;;;;6.80;4.28;;;;;;;;;;5094248;28;20049;-72
2022/08/12 04:14:27;;;;;;;7.00;4.00;;;;;;;;;;5087560;28;20053;-71
2022/08/12 04:16:55;;;;;;;6.30;4.55;;;;;;;;;;5072302;28;20053;-72
2022/08/12 04:19:24;;;;;;;7.97;4.22;;;;;;;;;;5079733;28;20060;-72
2022/08/12 04:21:51;;;;;;;5.57;4.03;;;;;;;;;;5092699;28;20048;-72
2022/08/12 04:24:28;;;;;;;7.47;4.20;;;;;;;;;;5094003;28;20064;-73
2022/08/12 04:26:55;;;;;;;6.03;4.30;;;;;;;;;;5094196;28;20140;-73
2022/08/12 04:29:22;;;;;;;4.22;3.70;;;;;;;;;;5093700;28;20151;-73
2022/08/12 04:32:08;;;;;;;7.70;4.22;;;;;;;;;;5078782;28;20060;-73
2022/08/12 04:34:37;;;;;;;4.60;3.55;;;;;;;;;;5087167;28;20055;-72
2022/08/12 04:37:03;;;;;;;7.80;4.13;;;;;;;;;;5092299;28;20056;-73
2022/08/12 04:39:30;;;;;;;4.97;3.88;;;;;;;;;;5093815;28;20059;-73
2022/08/12 04:41:59;;;;;;;6.93;4.20;;;;;;;;;;5072815;28;20053;-67
2022/08/12 04:44:26;;;;;;;4.35;3.95;;;;;;;;;;5082730;28;20491;-66
2022/08/12 04:46:59;;;;;;;5.82;4.07;;;;;;;;;;5092506;28;20056;-66
2022/08/12 04:49:26;;;;;;;6.57;4.22;;;;;;;;;;5091946;28;20052;-66
2022/08/12 04:51:54;;;;;;;5.65;4.18;;;;;;;;;;5090903;28;20396;-66
2022/08/12 04:54:25;;;;;;;15.15;4.65;;;;;;;;;;5083504;28;20045;-66
2022/08/12 04:56:52;;;;;;;5.82;3.83;;;;;;;;;;5090477;28;20059;-66
2022/08/12 04:59:29;;;;;;;6.30;4.03;;;;;;;;;;5091863;28;20102;-66
2022/08/12 05:02:12;;;;;;;5.18;4.55;;;;;;;;;;5080051;28;20140;-66
2022/08/12 05:04:47;;;;;;;7.85;5.13;;;;;;;;;;5073925;28;20064;-66
2022/08/12 05:07:13;;;;;;;6.30;4.80;;;;;;;;;;5069613;28;20931;-66
2022/08/12 05:09:40;;;;;;;7.20;5.30;;;;;;;;;;5071789;28;20368;-66
2022/08/12 05:12:28;;;;;;;4.85;4.35;;;;;;;;;;5071326;28;20057;-67
2022/08/12 05:14:55;;;;;;;5.97;4.57;;;;;;;;;;5072578;28;20059;-67
2022/08/12 05:17:24;;;;;;;6.28;4.63;;;;;;;;;;5073736;28;20056;-66
2022/08/12 05:19:53;;;;;;;5.78;4.65;;;;;;;;;;5073261;28;20432;-66
2022/08/12 05:22:22;;;;;;;5.10;4.30;;;;;;;;;;5073266;28;20516;-67
2022/08/12 05:24:49;;;;;;;7.60;4.63;;;;;;;;;;5073304;28;20053;-66
2022/08/12 05:27:16;;;;;;;7.13;4.40;;;;;;;;;;5073293;28;20053;-65
2022/08/12 05:29:48;;;;;;;5.72;4.10;;;;;;;;;;5073214;28;20052;-66
2022/08/12 05:32:34;;;;;;;5.43;4.18;;;;;;;;;;5072379;28;20481;-66
2022/08/12 05:35:05;;;;;;;7.20;4.45;;;;;;;;;;5076098;28;20059;-65
2022/08/12 05:37:35;;;;;;;6.13;4.40;;;;;;;;;;5084808;28;20136;-65
2022/08/12 05:40:02;;;;;;;19.88;5.95;;;;;;;;;;5072715;28;20056;-65
2022/08/12 05:42:36;;;;;;;6.25;4.28;;;;;;;;;;5082435;28;20033;-67
2022/08/12 05:45:03;;;;;;;4.13;3.72;;;;;;;;;;5092375;28;20052;-69
2022/08/12 05:47:31;;;;;;;7.57;4.68;;;;;;;;;;5088551;28;20059;-69
2022/08/12 05:50:18;;;;;;;6.13;4.22;;;;;;;;;;5088313;28;20100;-70
2022/08/12 05:52:44;;;;;;;11.07;4.50;;;;;;;;;;5089841;28;20052;-69
2022/08/12 05:55:13;;;;;;;6.45;3.80;;;;;;;;;;5086549;28;20053;-66
2022/08/12 05:57:39;;;;;;;6.05;3.65;;;;;;;;;;5082728;28;20045;-67
2022/08/12 06:00:06;;;;;;;7.35;4.30;;;;;;;;;;5097383;27;20897;-67
2022/08/12 06:02:33;;;;;;;6.10;4.20;;;;;;;;;;5099834;27;20049;-67
2022/08/12 06:05:01;;;;;;;5.35;4.45;;;;;;;;;;5093741;28;20083;-66
2022/08/12 06:07:27;;;;;;;4.35;3.95;;;;;;;;;;5094459;28;20056;-67
2022/08/12 06:10:15;;;;;;;4.45;4.05;;;;;;;;;;5087473;28;20065;-68
2022/08/12 06:12:41;;;;;;;5.82;5.10;;;;;;;;;;5078072;28;20061;-69
2022/08/12 06:15:08;;;;;;;5.65;3.90;;;;;;;;;;5075673;28;20057;-69
2022/08/12 06:17:36;;;;;;;6.75;4.20;;;;;;;;;;5094176;28;20531;-70
2022/08/12 06:20:03;;;;;;;4.88;4.43;;;;;;;;;;5094764;28;20063;-69
2022/08/12 06:22:50;;;;;;;6.03;3.92;;;;;;;;;;5087783;28;20067;-70
2022/08/12 06:25:20;;;;;;;7.28;4.13;;;;;;;;;;5082532;28;20053;-69
2022/08/12 06:27:47;;;;;;;4.13;3.40;;;;;;;;;;5086868;28;20085;-68
2022/08/12 06:30:35;;;;;;;4.15;3.08;;;;;;;;;;5093482;28;20145;-65
2022/08/12 06:33:05;;;;;;;8.98;4.22;;;;;;;;;;5086038;28;20135;-65
2022/08/12 06:35:52;;;;;;;7.07;3.60;;;;;;;;;;5080957;28;20064;-65
2022/08/12 06:38:25;;;;;;;5.22;3.45;;;;;;;;;;5082843;28;20087;-68
2022/08/12 06:43:44;;;;;;;5.18;4.07;;;;;;;;;;5091673;28;20154;-68
2022/08/12 06:46:30;;;;;;;5.35;3.88;;;;;;;;;;5083769;28;20064;-69
2022/08/12 06:48:57;;;;;;;4.32;3.45;;;;;;;;;;5089386;28;20049;-69
2022/08/12 06:51:25;;;;;;;5.15;3.78;;;;;;;;;;5075120;28;20144;-70
2022/08/12 06:53:52;;;;;;;5.55;3.42;;;;;;;;;;5090156;28;20062;-68
2022/08/12 06:56:19;;;;;;;3.97;3.58;;;;;;;;;;5093203;28;20185;-67
2022/08/12 06:58:45;;;;;;;5.90;3.75;;;;;;;;;;5093963;28;20048;-66
2022/08/12 07:01:11;;;;;;;4.22;3.70;;;;;;;;;;5093713;28;21031;-69
2022/08/12 07:03:38;;;;;;;4.93;4.20;;;;;;;;;;5090511;28;20052;-69
2022/08/12 07:06:05;;;;;;;4.22;3.40;;;;;;;;;;5080556;28;20049;-69
2022/08/12 07:08:32;;;;;;;4.30;3.65;;;;;;;;;;5082769;28;20048;-64
2022/08/12 07:11:03;;;;;;;7.60;3.50;;;;;;;;;;5092170;28;20510;-67
2022/08/12 07:13:37;;;;;;;9.82;4.38;;;;;;;;;;5075656;28;20107;-67
2022/08/12 07:16:25;;;;;;;5.57;3.90;;;;;;;;;;5075525;28;20518;-66
2022/08/12 07:18:53;;;;;;;4.53;3.40;;;;;;;;;;5089333;28;20114;-68
2022/08/12 07:21:21;;;;;;;4.63;3.33;;;;;;;;;;5093500;28;20055;-69
2022/08/12 07:23:49;;;;;;;4.63;4.07;;;;;;;;;;5094094;28;20062;-67
2022/08/12 07:26:15;;;;;;;5.18;3.70;;;;;;;;;;5092857;28;20139;-67
2022/08/12 07:28:42;;;;;;;8.60;4.40;;;;;;;;;;5093323;28;20055;-67
2022/08/12 07:31:11;;;;;;;4.43;3.80;;;;;;;;;;5089937;28;20048;-68
2022/08/12 07:33:42;;;;;;;8.02;5.00;;;;;;;;;;5093108;28;20049;-67
2022/08/12 07:36:12;;;;;;;5.15;3.80;;;;;;;;;;5092910;28;20090;-69
2022/08/12 07:38:42;;;;;;;13.52;3.97;;;;;;;;;;5092718;28;20142;-66
2022/08/12 07:41:29;;;;;;;5.43;3.90;;;;;;;;;;5088540;28;20165;-65
2022/08/12 07:43:55;;;;;;;;;;;;;;;;;;5074288;28;20467;-65
2022/08/12 07:46:25;;;;;;;4.18;3.67;;;;;;;;;;5091272;28;45843;-65
2022/08/12 07:48:53;;;;;;;4.53;3.90;;;;;;;;;;5093169;28;20055;-67
2022/08/12 07:51:21;;;;;;;6.32;4.05;;;;;;;;;;5091982;28;20055;-67
2022/08/12 07:53:51;;;;;;;4.97;3.72;;;;;;;;;;5085402;28;20076;-67
2022/08/12 07:56:29;;;;;;;4.10;3.70;;;;;;;;;;5075246;28;20064;-66
2022/08/12 07:58:57;;;;;;;9.20;5.53;;;;;;;;;;5072844;28;20045;-67
2022/08/12 08:01:24;;;;;;;5.05;4.05;;;;;;;;;;5072032;28;20077;-67
2022/08/12 08:06:43;;;;;;;13.68;4.18;;;;;;;;;;5072567;28;20049;-69
2022/08/12 08:09:14;;;;;;;6.30;3.33;;;;;;;;;;5097498;28;20113;-69
2022/08/12 08:14:28;;;;;;;7.65;3.97;;;;;;;;;;5072567;28;20431;-69
2022/08/12 08:16:59;;;;;;;8.80;3.53;;;;;;;;;;5072725;28;20126;-69
2022/08/12 08:19:27;;;;;;;6.00;3.67;;;;;;;;;;5081505;28;20079;-69
2022/08/12 08:21:55;;;;;;;5.55;3.30;;;;;;;;;;5074778;28;20057;-68
2022/08/12 08:24:23;;;;;;;4.50;2.80;;;;;;;;;;5072267;28;20064;-66
2022/08/12 08:26:50;;;;;;;4.30;3.63;;;;;;;;;;5086796;28;20526;-68
2022/08/12 08:29:17;;;;;;;4.30;3.58;;;;;;;;;;5092514;28;20135;-68
2022/08/12 08:31:45;;;;;;;3.78;3.42;;;;;;;;;;5093948;28;21885;-69
2022/08/12 08:34:12;;;;;;;4.75;3.72;;;;;;;;;;5110311;28;20059;-68
2022/08/12 08:36:58;;;;;;;3.75;3.20;;;;;;;;;;5072312;28;20045;-67
2022/08/12 08:39:30;;;;;;;4.50;3.28;;;;;;;;;;5072379;28;20060;-67
2022/08/12 08:44:45;;;;;;;3.75;3.10;;;;;;;;;;5084228;28;20052;-66
2022/08/12 08:47:15;;;;;;;5.75;3.28;;;;;;;;;;5090898;28;20570;-69
2022/08/12 08:49:42;;;;;;;3.65;3.00;;;;;;;;;;5080439;28;20384;-68
2022/08/12 08:52:09;;;;;;;6.53;3.10;;;;;;;;;;5092296;28;20056;-68
2022/08/12 08:54:36;;;;;;;6.70;3.45;;;;;;;;;;5091910;28;20052;-69
2022/08/12 08:57:05;;;;;;;3.42;3.13;;;;;;;;;;5089900;28;20056;-68
2022/08/12 08:59:31;;;;;;;8.43;3.10;;;;;;;;;;5090573;28;20053;-68
2022/08/12 09:01:57;;;;;;;4.45;3.45;;;;;;;;;;5092263;28;20053;-67
2022/08/12 09:04:25;;;;;;;3.72;2.72;;;;;;;;;;5092107;28;20053;-67
2022/08/12 09:07:12;;;;;;;7.03;3.90;;;;;;;;;;5089296;28;20083;-67
2022/08/12 09:09:43;;;;;;;4.43;3.03;;;;;;;;;;5107520;28;20140;-67
2022/08/12 09:15:21;;;;;;;2.55;2.35;;;;;;;;;;5074421;28;20053;-69
2022/08/12 09:18:02;;;;;;;4.88;2.80;;;;;;;;;;5088107;28;20171;-70
2022/08/12 09:20:32;;;;;;;7.05;3.25;;;;;;;;;;5089371;28;20057;-69
2022/08/12 09:23:00;;;;;;;7.22;3.03;;;;;;;;;;5073939;28;20045;-68
2022/08/12 09:25:34;;;;;;;4.20;2.72;;;;;;;;;;5071492;28;20064;-69
2022/08/12 09:28:01;;;;;;;7.50;2.90;;;;;;;;;;5071292;28;20513;-69
2022/08/12 09:30:31;;;;;;;3.38;2.53;;;;;;;;;;5076854;28;20074;-67
2022/08/12 09:33:08;;;;;;;6.63;2.70;;;;;;;;;;5089371;28;20079;-67
2022/08/12 09:35:56;;;;;;;3.85;2.60;;;;;;;;;;5085274;28;20064;-74
2022/08/12 09:38:29;;;;;;;4.07;2.88;;;;;;;;;;5090806;28;20102;-72
2022/08/12 09:40:57;;;;;;;3.30;2.60;;;;;;;;;;5077894;27;20064;-71
2022/08/12 09:46:30;;;;;;;3.88;2.78;;;;;;;;;;5086828;28;20132;-72
2022/08/12 09:48:59;;;;;;;5.47;3.15;;;;;;;;;;5090064;28;20614;-72
2022/08/12 09:51:33;;;;;;;2.70;2.50;;;;;;;;;;5101797;28;20492;-73
2022/08/12 09:54:03;;;;;;;3.40;2.40;;;;;;;;;;5103926;27;20106;-71
2022/08/12 09:56:52;;;;;;;3.58;2.58;;;;;;;;;;5088739;28;20163;-73
2022/08/12 09:59:28;;;;;;;7.78;3.17;;;;;;;;;;5088064;28;20059;-71
2022/08/12 10:02:15;;;;;;;5.78;2.85;;;;;;;;;;5107233;28;20053;-72
2022/08/12 10:05:01;;;;;;;2.63;2.35;;;;;;;;;;5089959;28;20056;-71
2022/08/12 10:07:29;;;;;;;4.40;2.50;;;;;;;;;;5089253;28;20092;-70
2022/08/12 10:10:06;;;;;;;3.42;2.92;;;;;;;;;;5079482;28;20231;-70
2022/08/12 10:15:55;;;;;;;4.30;2.70;;;;;;;;;;5072392;28;20050;-71
2022/08/12 10:18:31;;;;;;;5.53;2.72;;;;;;;;;;5086880;28;20060;-72
2022/08/12 10:21:03;;;;;;;4.95;2.22;;;;;;;;;;5084096;28;20087;-73
2022/08/12 10:23:29;;;;;;;6.32;3.22;;;;;;;;;;5107423;28;20052;-72
2022/08/12 10:32:11;;;;;;;3.45;2.50;;;;;;;;;;5076970;28;20048;-74
2022/08/12 10:34:59;;;;;;;7.53;2.30;;;;;;;;;;5090389;28;20048;-73
2022/08/12 10:37:25;;;;;;;5.90;2.60;;;;;;;;;;5105011;27;20053;-74
2022/08/12 10:40:12;;;;;;;3.75;2.75;;;;;;;;;;5083774;28;20061;-74
2022/08/12 10:45:42;;;;;;;2.83;2.55;;;;;;;;;;5061597;28;20053;-73
2022/08/12 10:48:11;;;;;;;3.42;2.55;;;;;;;;;;5078960;28;20049;-67
2022/08/12 10:50:53;;;;;;;3.58;2.55;;;;;;;;;;5092337;28;20460;-72
2022/08/12 10:53:28;;;;;;;4.00;2.85;;;;;;;;;;5092332;28;20500;-73
2022/08/12 10:56:12;;;;;;;5.47;2.67;;;;;;;;;;5093156;28;20491;-74
2022/08/12 10:58:38;;;;;;;5.60;2.45;;;;;;;;;;5089840;28;20494;-71
2022/08/12 11:01:11;;;;;;;3.53;2.30;;;;;;;;;;5113560;28;20056;-71
2022/08/12 11:04:00;;;;;;;6.40;2.53;;;;;;;;;;5083724;28;20052;-73
2022/08/12 11:06:47;;;;;;;2.70;2.08;;;;;;;;;;5095817;28;20064;-72
2022/08/12 11:09:34;;;;;;;5.53;2.10;;;;;;;;;;5093732;28;20154;-74
2022/08/12 11:12:21;;;;;;;3.15;2.42;;;;;;;;;;5093707;28;20155;-73
2022/08/12 11:15:08;;;;;;;6.15;2.17;;;;;;;;;;5074014;28;20060;-73
2022/08/12 11:17:46;;;;;;;7.55;2.90;;;;;;;;;;5074058;28;20053;-74
2022/08/12 11:20:23;;;;;;;5.00;2.60;;;;;;;;;;5075332;28;20103;-75
2022/08/12 11:22:57;;;;;;;2.65;2.45;;;;;;;;;;5078491;28;20051;-73
2022/08/12 11:25:24;;;;;;;3.97;2.00;;;;;;;;;;5073485;28;20049;-74
2022/08/12 11:28:11;;;;;;;2.97;2.20;;;;;;;;;;5079462;28;20059;-74
2022/08/12 11:30:40;;;;;;;2.35;2.15;;;;;;;;;;5091896;28;20134;-74
2022/08/12 11:33:07;;;;;;;4.97;2.20;;;;;;;;;;5092542;28;20059;-73
2022/08/12 11:35:40;;;;;;;1.85;1.75;;;;;;;;;;5093733;28;20057;-76
2022/08/12 11:38:08;;;;;;;3.25;2.00;;;;;;;;;;5095007;28;20049;-75
2022/08/12 11:40:35;;;;;;;3.80;2.25;;;;;;;;;;5095206;28;20055;-75
2022/08/12 11:43:08;;;;;;;2.50;1.90;;;;;;;;;;5094825;28;20057;-75
2022/08/12 11:45:45;;;;;;;2.92;1.80;;;;;;;;;;5088391;28;20136;-72
2022/08/12 11:48:12;;;;;;;3.40;1.92;;;;;;;;;;5083153;28;20060;-74
2022/08/12 11:50:43;;;;;;;6.80;1.90;;;;;;;;;;5073315;28;20998;-75
2022/08/12 11:53:10;;;;;;;3.88;2.40;;;;;;;;;;5075260;28;20063;-76
2022/08/12 11:55:56;;;;;;;2.40;2.20;;;;;;;;;;5078045;28;20048;-75
2022/08/12 11:58:22;;;;;;;5.32;2.00;;;;;;;;;;5092998;28;20143;-76
2022/08/12 12:01:09;;;;;;;2.28;2.08;;;;;;;;;;5077373;28;20048;-74
2022/08/12 12:03:55;;;;;;;3.50;2.25;;;;;;;;;;5073642;28;20049;-75
2022/08/12 12:06:23;;;;;;;3.33;1.65;;;;;;;;;;5073560;28;20049;-72
2022/08/12 12:08:50;;;;;;;3.25;2.10;;;;;;;;;;5073202;28;20057;-75
2022/08/12 12:11:19;;;;;;;2.83;2.00;;;;;;;;;;5072908;28;20069;-75
2022/08/12 12:13:46;;;;;;;4.60;2.42;;;;;;;;;;5074249;28;20061;-75
2022/08/12 12:16:32;;;;;;;5.07;2.10;;;;;;;;;;5073557;28;20045;-73
2022/08/12 12:19:04;;;;;;;1.88;1.77;;;;;;;;;;5072477;28;20507;-75
2022/08/12 12:21:31;;;;;;;3.70;2.33;;;;;;;;;;5072974;28;20059;-72
2022/08/12 12:24:14;;;;;;;5.72;1.92;;;;;;;;;;5089056;28;20053;-73
2022/08/12 12:26:47;;;;;;;2.35;1.80;;;;;;;;;;5089984;28;20052;-72
2022/08/12 12:29:26;;;;;;;3.80;2.05;;;;;;;;;;5088774;28;20053;-73
2022/08/12 12:32:13;;;;;;;2.22;1.90;;;;;;;;;;5080575;28;20057;-74
2022/08/12 12:34:39;;;;;;;3.78;1.95;;;;;;;;;;5080121;28;20087;-73
2022/08/12 12:37:25;;;;;;;3.28;1.60;;;;;;;;;;5088357;28;20049;-75
2022/08/12 12:40:12;;;;;;;2.58;1.70;;;;;;;;;;5087058;28;20063;-72
2022/08/12 12:42:39;;;;;;;2.95;1.88;;;;;;;;;;5102001;28;20060;-71
2022/08/12 12:45:21;;;;;;;3.17;1.70;;;;;;;;;;5075452;27;20599;-76
2022/08/12 12:47:52;;;;;;;2.45;1.80;;;;;;;;;;5072738;28;20048;-77
2022/08/12 12:50:20;;;;;;;1.77;1.63;;;;;;;;;;5071260;28;20048;-77
2022/08/12 12:53:01;;;;;;;2.10;1.90;;;;;;;;;;5085827;28;20106;-74
2022/08/12 12:55:27;;;;;;;1.90;1.80;;;;;;;;;;5092326;28;20052;-76
2022/08/12 12:58:03;;;;;;;2.28;2.05;;;;;;;;;;5092641;28;20557;-76
2022/08/12 13:00:31;;;;;;;4.57;2.38;;;;;;;;;;5075301;28;20524;-76
2022/08/12 13:02:58;;;;;;;2.05;1.92;;;;;;;;;;5074406;28;20053;-74
2022/08/12 13:05:28;;;;;;;3.22;2.00;;;;;;;;;;5082426;28;20060;-74
2022/08/12 13:08:24;;;;;;;3.90;1.85;;;;;;;;;;5087927;28;20053;-72
2022/08/12 13:11:05;;;;;;;2.88;1.70;;;;;;;;;;5086076;28;20057;-72
2022/08/12 13:13:33;;;;;;;2.00;1.80;;;;;;;;;;5082179;28;20061;-74
2022/08/12 13:16:20;;;;;;;3.65;2.30;;;;;;;;;;5087494;28;20041;-72
2022/08/12 13:18:49;;;;;;;5.25;1.77;;;;;;;;;;5082302;28;20075;-74
2022/08/12 13:21:17;;;;;;;2.42;1.65;;;;;;;;;;5102036;28;20048;-73
2022/08/12 13:24:01;;;;;;;2.17;1.92;;;;;;;;;;5109520;27;20045;-76
2022/08/12 13:26:37;;;;;;;4.38;1.95;;;;;;;;;;5103565;28;20049;-74
2022/08/12 13:29:06;;;;;;;2.20;1.80;;;;;;;;;;5089782;28;20136;-77
2022/08/12 13:31:37;;;;;;;3.10;1.58;;;;;;;;;;5076446;28;20100;-77
2022/08/12 13:34:23;;;;;;;2.08;1.98;;;;;;;;;;5080881;28;20067;-75
2022/08/12 13:37:03;;;;;;;2.25;1.70;;;;;;;;;;5084150;28;20056;-75
2022/08/12 13:39:35;;;;;;;2.67;1.52;;;;;;;;;;5091133;28;20126;-76
2022/08/12 13:42:02;;;;;;;2.15;1.67;;;;;;;;;;5076787;28;20048;-74
2022/08/12 13:44:29;;;;;;;1.80;1.70;;;;;;;;;;5093250;28;20175;-75
2022/08/12 13:46:55;;;;;;;2.20;1.70;;;;;;;;;;5085840;28;20048;-72
2022/08/12 13:49:24;;;;;;;3.25;1.92;;;;;;;;;;5087194;28;20072;-72
2022/08/12 13:52:10;;;;;;;2.53;2.00;;;;;;;;;;5082119;28;20049;-72
2022/08/12 13:54:37;;;;;;;4.25;1.90;;;;;;;;;;5098083;28;20052;-75
2022/08/12 13:57:03;;;;;;;2.28;1.88;;;;;;;;;;5091540;27;20142;-72
2022/08/12 13:59:37;;;;;;;3.15;2.10;;;;;;;;;;5099931;27;20499;-72
2022/08/12 14:02:20;;;;;;;1.92;1.70;;;;;;;;;;5083534;28;20162;-73
2022/08/12 14:04:49;;;;;;;2.03;1.90;;;;;;;;;;5090245;28;20496;-76
2022/08/12 14:07:22;;;;;;;2.30;2.03;;;;;;;;;;5089664;28;20526;-76
2022/08/12 14:12:38;;;;;;;2.92;1.98;;;;;;;;;;5073141;28;20059;-74
2022/08/12 14:15:19;;;;;;;6.90;1.95;;;;;;;;;;5082308;28;20111;-78
2022/08/12 14:18:17;;;;;;;2.55;1.75;;;;;;;;;;5102845;28;20052;-77
2022/08/12 14:20:47;;;;;;;2.28;2.00;;;;;;;;;;5085265;28;20056;-79
2022/08/12 14:23:15;;;;;;;3.25;2.05;;;;;;;;;;5083547;28;20061;-77
2022/08/12 14:26:04;;;;;;;2.83;1.92;;;;;;;;;;5092052;28;20055;-79
2022/08/12 14:28:32;;;;;;;2.20;1.70;;;;;;;;;;5079951;28;20055;-78
2022/08/12 14:31:01;;;;;;;2.63;2.08;;;;;;;;;;5095713;28;20059;-75
2022/08/12 14:33:32;;;;;;;2.10;1.90;;;;;;;;;;5090028;28;20049;-71
2022/08/12 14:36:13;;;;;;;3.90;1.90;;;;;;;;;;5089296;28;20153;-73
2022/08/12 14:38:42;;;;;;;4.43;2.00;;;;;;;;;;5084210;28;20075;-77
2022/08/12 14:41:15;;;;;;;1.95;1.77;;;;;;;;;;5084118;28;20056;-72
2022/08/12 14:43:45;;;;;;;2.17;1.98;;;;;;;;;;5104938;27;20538;-72
2022/08/12 14:46:31;;;;;;;3.72;1.98;;;;;;;;;;5099594;28;20055;-74
2022/08/12 14:48:58;;;;;;;2.03;1.92;;;;;;;;;;5091194;27;20167;-72
2022/08/12 14:51:44;;;;;;;8.68;2.13;;;;;;;;;;5087625;28;20057;-73
2022/08/12 14:54:31;;;;;;;2.75;2.00;;;;;;;;;;5076550;28;20052;-75
2022/08/12 14:57:18;;;;;;;2.63;1.80;;;;;;;;;;5073461;28;20052;-74
2022/08/12 15:02:36;;;;;;;2.08;1.80;;;;;;;;;;5085807;28;20063;-74
2022/08/12 15:05:03;;;;;;;4.68;2.20;;;;;;;;;;5077050;28;20052;-75
2022/08/12 15:07:31;;;;;;;3.50;1.95;;;;;;;;;;5093416;28;20050;-74
2022/08/12 15:10:17;;;;;;;2.13;1.92;;;;;;;;;;5092979;27;20584;-78
2022/08/12 15:13:04;;;;;;;6.35;2.20;;;;;;;;;;5085931;28;20768;-74
2022/08/12 15:15:36;;;;;;;2.37;1.80;;;;;;;;;;5094218;28;20501;-75
2022/08/12 15:18:14;;;;;;;6.80;3.08;;;;;;;;;;5091316;28;20110;-74
2022/08/12 15:20:46;;;;;;;4.60;2.72;;;;;;;;;;5093364;28;20053;-74
2022/08/12 15:23:13;;;;;;;4.10;2.50;;;;;;;;;;5095164;28;20103;-76
2022/08/12 15:25:50;;;;;;;3.50;2.03;;;;;;;;;;5093799;28;20103;-76
2022/08/12 15:28:29;;;;;;;4.53;2.25;;;;;;;;;;5094091;28;20052;-73
2022/08/12 15:30:57;;;;;;;3.17;2.08;;;;;;;;;;5086696;28;20056;-74
2022/08/12 15:33:25;;;;;;;2.78;1.83;;;;;;;;;;5092765;28;20059;-72
2022/08/12 15:36:13;;;;;;;7.18;2.15;;;;;;;;;;5081768;28;20056;-73
2022/08/12 15:38:44;;;;;;;4.20;2.15;;;;;;;;;;5098484;28;20125;-72
2022/08/12 15:41:13;;;;;;;2.42;2.20;;;;;;;;;;5088751;28;20052;-74
2022/08/12 15:43:40;;;;;;;2.60;2.40;;;;;;;;;;5089800;28;20057;-74
2022/08/12 15:46:30;;;;;;;4.47;2.10;;;;;;;;;;5083501;28;20059;-77
2022/08/12 15:48:57;;;;;;;4.78;2.30;;;;;;;;;;5082714;28;20057;-74
2022/08/12 15:51:28;;;;;;;2.33;2.13;;;;;;;;;;5089684;28;20443;-72
2022/08/12 15:54:15;;;;;;;3.17;2.25;;;;;;;;;;5098729;28;20451;-72
2022/08/12 15:57:04;;;;;;;4.45;2.20;;;;;;;;;;5085365;28;20165;-72
2022/08/12 15:59:31;;;;;;;5.15;2.17;;;;;;;;;;5081305;28;20585;-71
2022/08/12 16:02:18;;;;;;;2.25;2.05;;;;;;;;;;5091559;28;20060;-72
2022/08/12 16:04:49;;;;;;;2.00;1.90;;;;;;;;;;5090890;28;20062;-72
2022/08/12 16:07:22;;;;;;;2.20;2.00;;;;;;;;;;5084696;28;20105;-74
2022/08/12 16:09:59;;;;;;;2.40;2.20;;;;;;;;;;5088052;28;20049;-72
2022/08/12 16:12:33;;;;;;;;;;;;;;;;;;5079698;28;20067;-72
2022/08/12 16:15:00;;;;;;;3.25;2.10;;;;;;;;;;5083055;28;45349;-73
2022/08/12 16:17:26;;;;;;;3.45;2.95;;;;;;;;;;5087606;28;20098;-72
2022/08/12 16:20:21;;;;;;;9.43;2.72;;;;;;;;;;5079230;28;20075;-74
2022/08/12 16:22:58;;;;;;;2.90;2.10;;;;;;;;;;5092423;28;20060;-73
2022/08/12 16:25:29;;;;;;;3.72;1.95;;;;;;;;;;5086711;28;20053;-73
2022/08/12 16:28:16;;;;;;;8.93;2.33;;;;;;;;;;5090282;28;20048;-74
2022/08/12 16:30:43;;;;;;;4.70;2.10;;;;;;;;;;5082854;28;20060;-74
2022/08/12 16:33:15;;;;;;;2.42;2.03;;;;;;;;;;5082463;28;20058;-74
2022/08/12 16:35:44;;;;;;;2.00;1.80;;;;;;;;;;5091989;28;20060;-74
2022/08/12 16:38:12;;;;;;;2.30;2.03;;;;;;;;;;5092652;28;20103;-75
2022/08/12 16:40:53;;;;;;;2.28;2.08;;;;;;;;;;5092421;28;20052;-74
2022/08/12 16:43:24;;;;;;;3.33;2.08;;;;;;;;;;5092545;28;20055;-74
2022/08/12 16:45:52;;;;;;;2.65;2.03;;;;;;;;;;5092166;28;20049;-74
2022/08/12 16:48:38;;;;;;;5.25;1.88;;;;;;;;;;5092621;28;20522;-73
2022/08/12 16:51:06;;;;;;;7.10;2.63;;;;;;;;;;5091305;28;20421;-75
2022/08/12 16:53:39;;;;;;;2.40;2.20;;;;;;;;;;5079893;28;20135;-73
2022/08/12 16:56:11;;;;;;;3.85;2.22;;;;;;;;;;5092932;28;20056;-73
2022/08/12 16:58:38;;;;;;;2.17;1.98;;;;;;;;;;5092431;28;20122;-76
2022/08/12 17:01:10;;;;;;;3.83;2.10;;;;;;;;;;5091631;28;20415;-76
2022/08/12 17:03:43;;;;;;;4.77;2.10;;;;;;;;;;5091761;28;20056;-76
2022/08/12 17:06:18;;;;;;;8.13;1.90;;;;;;;;;;5076268;28;20739;-76
2022/08/12 17:08:47;;;;;;;1.80;1.70;;;;;;;;;;5089710;28;20462;-76
2022/08/12 17:11:21;;;;;;;2.38;2.00;;;;;;;;;;5091653;28;20049;-73